createdAt,value
2023-03-16T00:03:59.912Z,96597.97
2023-03-16T00:09:02.736Z,96595.53
2023-03-16T00:14:06.705Z,96592.25
2023-03-16T00:19:10.924Z,96592.25
2023-03-16T00:24:18.021Z,96592.53
2023-03-16T00:29:22.578Z,96607.94
2023-03-16T00:34:29.985Z,96601.72
2023-03-16T00:39:35.764Z,96589.28
2023-03-16T00:44:38.901Z,96598.47
2023-03-16T00:49:44.361Z,96590.88
2023-03-16T00:54:48.085Z,96591.94
2023-03-16T00:59:50.891Z,96593.84
2023-03-16T01:04:55.409Z,96591.16
2023-03-16T01:09:58.307Z,96587.34
2023-03-16T01:15:01.196Z,96587.09
2023-03-16T01:20:11.968Z,96590.03
2023-03-16T01:25:15.113Z,96578.94
2023-03-16T01:30:18.067Z,96573.53
2023-03-16T01:35:22.446Z,96573.78
2023-03-16T01:40:25.401Z,96571.09
2023-03-16T01:46:14.201Z,96559.16
2023-03-16T01:51:21.576Z,96542.44
2023-03-16T01:56:28.870Z,96546.47
2023-03-16T02:01:32.077Z,96536.50
2023-03-16T02:06:37.129Z,96541.34
2023-03-16T02:11:40.128Z,96535.13
2023-03-16T02:16:43.229Z,96531.59
2023-03-16T02:21:54.384Z,96524.00
2023-03-16T02:26:59.289Z,96521.59
2023-03-16T02:32:05.460Z,96529.69
2023-03-16T02:37:08.815Z,96528.88
2023-03-16T02:42:14.604Z,96521.59
2023-03-16T02:47:25.562Z,96522.94
2023-03-16T02:52:28.375Z,96521.03
2023-03-16T02:57:31.686Z,96526.72
2023-03-16T03:02:35.896Z,96528.59
2023-03-16T03:07:38.782Z,96525.88
2023-03-16T03:12:42.387Z,96525.34
2023-03-16T03:17:46.853Z,96529.09
2023-03-16T03:22:52.540Z,96528.03
2023-03-16T03:27:55.779Z,96532.09
2023-03-16T03:33:00.050Z,96523.16
2023-03-16T03:38:02.970Z,96536.13
2023-03-16T03:43:06.347Z,96536.38
2023-03-16T03:48:10.824Z,96537.44
2023-03-16T03:53:13.660Z,96548.00
2023-03-16T03:58:16.637Z,96543.09
2023-03-16T04:03:21.748Z,96541.22
2023-03-16T04:08:24.635Z,96544.97
2023-03-16T04:13:27.864Z,96540.91
2023-03-16T04:18:38.488Z,96532.25
2023-03-16T04:23:42.535Z,96536.56
2023-03-16T04:28:45.370Z,96538.47
2023-03-16T04:33:49.566Z,96549.53
2023-03-16T04:38:52.827Z,96537.09
2023-03-16T04:43:55.643Z,96531.69
2023-03-16T04:48:59.840Z,96531.94
2023-03-16T04:54:02.673Z,96526.53
2023-03-16T04:59:05.641Z,96523.84
2023-03-16T05:04:13.147Z,96528.72
2023-03-16T05:09:20.695Z,96526.13
2023-03-16T05:14:23.621Z,96535.13
2023-03-16T05:19:27.884Z,96543.25
2023-03-16T05:24:30.754Z,96532.47
2023-03-16T05:29:34.365Z,96528.41
2023-03-16T05:34:38.898Z,96522.50
2023-03-16T05:39:41.790Z,96527.06
2023-03-16T05:44:45.093Z,96543.28
2023-03-16T05:49:49.359Z,96559.78
2023-03-16T05:54:52.246Z,96554.38
2023-03-16T05:59:55.043Z,96547.66
2023-03-16T06:04:59.335Z,96538.44
2023-03-16T06:10:02.829Z,96539.28
2023-03-16T06:15:07.348Z,96529.78
2023-03-16T06:20:13.814Z,96543.00
2023-03-16T06:25:17.119Z,96525.69
2023-03-16T06:30:20.129Z,96534.84
2023-03-16T06:35:24.311Z,96526.44
2023-03-16T06:40:27.429Z,96536.19
2023-03-16T06:45:30.496Z,96536.75
2023-03-16T06:50:34.644Z,96536.75
2023-03-16T06:55:37.443Z,96536.75
2023-03-16T07:00:40.266Z,96551.34
2023-03-16T07:05:44.466Z,96547.31
2023-03-16T07:10:47.390Z,96542.44
2023-03-16T07:15:52.148Z,96541.06
2023-03-16T07:20:56.377Z,96539.47
2023-03-16T07:25:59.218Z,96547.59
2023-03-16T07:31:04.045Z,96547.59
2023-03-16T07:36:10.649Z,96546.50
2023-03-16T07:41:14.070Z,96536.50
2023-03-16T07:46:16.980Z,96537.06
2023-03-16T07:51:21.555Z,96530.03
2023-03-16T07:56:24.421Z,96531.41
2023-03-16T08:01:27.266Z,96538.44
2023-03-16T08:06:31.459Z,96537.09
2023-03-16T08:11:34.361Z,96533.31
2023-03-16T08:16:37.488Z,96542.38
2023-03-16T08:21:59.767Z,96543.47
2023-03-16T08:27:03.863Z,96543.59
2023-03-16T08:32:07.603Z,96542.91
2023-03-16T08:37:12.459Z,96535.91
2023-03-16T08:42:16.768Z,96528.38
2023-03-16T08:47:19.718Z,96533.56
2023-03-16T08:52:24.716Z,96533.03
2023-03-16T08:57:27.862Z,96530.06
2023-03-16T09:02:31.495Z,96533.31
2023-03-16T09:07:36.312Z,96533.06
2023-03-16T09:12:40.805Z,96536.00
2023-03-16T09:17:45.213Z,96527.91
2023-03-16T09:22:49.529Z,96525.47
2023-03-16T09:27:52.657Z,96522.75
2023-03-16T09:32:56.027Z,96527.09
2023-03-16T09:38:07.547Z,96505.16
2023-03-16T09:43:20.138Z,96505.69
2023-03-16T09:48:25.281Z,96503.00
2023-03-16T09:53:31.775Z,96489.75
2023-03-16T09:58:34.783Z,96481.88
2023-03-16T10:03:57.166Z,96488.91
2023-03-16T10:09:08.259Z,96485.13
2023-03-16T10:14:17.730Z,96483.75
2023-03-16T10:19:24.531Z,96486.50
2023-03-16T10:24:39.714Z,96476.75
2023-03-16T10:29:42.635Z,96474.56
2023-03-16T10:34:49.488Z,96476.97
2023-03-16T10:39:56.392Z,96478.56
2023-03-16T10:45:01.901Z,96485.34
2023-03-16T10:50:14.486Z,96483.19
2023-03-16T10:55:21.561Z,96484.81
2023-03-16T11:00:28.949Z,96480.75
2023-03-16T11:05:33.333Z,96479.41
2023-03-16T11:10:49.397Z,96489.41
2023-03-16T11:16:01.773Z,96485.41
2023-03-16T11:21:09.564Z,96478.63
2023-03-16T11:26:22.768Z,96472.63
2023-03-16T11:31:30.071Z,96471.00
2023-03-16T11:36:41.709Z,96460.44
2023-03-16T11:41:53.455Z,96453.44
2023-03-16T11:47:01.533Z,96455.53
2023-03-16T11:52:10.630Z,96452.28
2023-03-16T11:57:27.651Z,96444.13
2023-03-16T12:02:41.959Z,96445.50
2023-03-16T12:07:53.460Z,96434.94
2023-03-16T12:13:33.168Z,96437.03
2023-03-16T12:18:41.633Z,96421.03
2023-03-16T12:23:52.361Z,96425.41
2023-03-16T12:28:57.511Z,96408.34
2023-03-16T12:34:08.457Z,96406.44
2023-03-16T12:39:18.749Z,96391.97
2023-03-16T12:44:24.817Z,96388.97
2023-03-16T12:49:29.351Z,96375.41
2023-03-16T12:54:33.429Z,96365.63
2023-03-16T12:59:40.344Z,96368.28
2023-03-16T13:04:45.510Z,96357.19
2023-03-16T13:09:53.185Z,96353.88
2023-03-16T13:14:57.784Z,96348.00
2023-03-16T13:20:06.920Z,96340.09
2023-03-16T13:25:18.084Z,96340.91
2023-03-16T13:30:25.231Z,96331.63
2023-03-16T13:35:31.773Z,96327.91
2023-03-16T13:40:35.748Z,96313.41
2023-03-16T13:45:40.343Z,96312.25
2023-03-16T13:50:44.802Z,96301.69
2023-03-16T13:55:48.861Z,96305.91
2023-03-16T14:00:56.728Z,96307.84
2023-03-16T14:05:59.748Z,96295.22
2023-03-16T14:11:03.889Z,96294.91
2023-03-16T14:16:14.808Z,96291.41
2023-03-16T14:21:19.154Z,96300.75
2023-03-16T14:26:22.739Z,96307.19
2023-03-16T14:31:35.804Z,96303.94
2023-03-16T14:36:39.895Z,96297.09
2023-03-16T14:41:43.501Z,96288.97
2023-03-16T14:46:47.822Z,96295.88
2023-03-16T14:51:52.650Z,96288.88
2023-03-16T14:56:57.238Z,96283.69
2023-03-16T15:02:02.346Z,96285.78
2023-03-16T15:07:20.149Z,96278.81
2023-03-16T15:12:25.061Z,96275.19
2023-03-16T15:17:29.558Z,96273.03
2023-03-16T15:22:34.005Z,96263.88
2023-03-16T15:27:37.407Z,96266.16
2023-03-16T15:32:41.657Z,96260.28
2023-03-16T15:37:44.860Z,96246.28
2023-03-16T15:42:47.772Z,96245.91
2023-03-16T15:47:53.185Z,96247.84
2023-03-16T15:52:59.038Z,96238.50
2023-03-16T15:58:03.668Z,96236.59
2023-03-16T16:03:18.533Z,96241.34
2023-03-16T16:08:21.832Z,96227.03
2023-03-16T16:13:37.428Z,96224.13
2023-03-16T16:18:46.566Z,96216.28
2023-03-16T16:23:49.736Z,96217.41
2023-03-16T16:28:53.044Z,96223.00
2023-03-16T16:33:59.167Z,96220.28
2023-03-16T16:39:05.205Z,96213.84
2023-03-16T16:44:16.026Z,96217.09
2023-03-16T16:49:23.703Z,96226.09
2023-03-16T16:54:28.888Z,96226.53
2023-03-16T16:59:33.483Z,96221.88
2023-03-16T17:04:38.131Z,96213.19
2023-03-16T17:09:41.111Z,96219.00
2023-03-16T17:14:44.139Z,96222.31
2023-03-16T17:19:48.544Z,96221.16
2023-03-16T17:24:51.857Z,96221.59
2023-03-16T17:29:55.101Z,96221.47
2023-03-16T17:34:59.227Z,96229.19
2023-03-16T17:40:02.908Z,96225.75
2023-03-16T17:45:10.722Z,96230.72
2023-03-16T17:50:24.368Z,96231.06
2023-03-16T17:55:27.266Z,96240.03
2023-03-16T18:00:32.495Z,96244.97
2023-03-16T18:05:37.324Z,96243.63
2023-03-16T18:10:41.437Z,96245.03
2023-03-16T18:15:45.066Z,96245.91
2023-03-16T18:20:50.897Z,96249.75
2023-03-16T18:25:55.865Z,96239.22
2023-03-16T18:30:59.461Z,96247.66
2023-03-16T18:36:06.702Z,96245.78
2023-03-16T18:41:15.815Z,96250.16
2023-03-16T18:46:24.516Z,96251.28
2023-03-16T18:51:29.658Z,96260.22
2023-03-16T18:56:32.863Z,96258.38
2023-03-16T19:01:37.848Z,96252.69
2023-03-16T19:06:42.058Z,96259.75
2023-03-16T19:11:46.138Z,96266.53
2023-03-16T19:16:49.036Z,96267.38
2023-03-16T19:21:55.197Z,96263.34
2023-03-16T19:26:58.716Z,96261.69
2023-03-16T19:32:02.364Z,96264.97
2023-03-16T19:37:07.114Z,96264.44
2023-03-16T19:42:18.495Z,96264.19
2023-03-16T19:47:26.472Z,96267.97
2023-03-16T19:52:32.662Z,96270.16
2023-03-16T19:57:35.581Z,96269.59
2023-03-16T20:02:40.344Z,96265.81
2023-03-16T20:07:44.631Z,96269.09
2023-03-16T20:12:48.517Z,96254.22
2023-03-16T20:17:51.862Z,96263.16
2023-03-16T20:22:59.216Z,96265.31
2023-03-16T20:28:03.822Z,96269.94
2023-03-16T20:33:06.741Z,96260.47
2023-03-16T20:38:14.522Z,96254.50
2023-03-16T20:43:23.610Z,96271.03
2023-03-16T20:48:27.476Z,96268.59
2023-03-16T20:53:31.823Z,96258.31
2023-03-16T20:58:35.524Z,96258.31
2023-03-16T21:03:39.424Z,96264.28
2023-03-16T21:08:43.625Z,96258.88
2023-03-16T21:13:46.918Z,96262.09
2023-03-16T21:18:50.317Z,96264.28
2023-03-16T21:23:54.513Z,96265.91
2023-03-16T21:28:58.906Z,96266.44
2023-03-16T21:34:01.869Z,96254.81
2023-03-16T21:39:15.905Z,96262.97
2023-03-16T21:44:19.611Z,96254.56
2023-03-16T21:49:22.495Z,96251.59
2023-03-16T21:54:27.563Z,96248.91
2023-03-16T21:59:30.527Z,96254.84
2023-03-16T22:04:33.386Z,96245.66
2023-03-16T22:09:37.522Z,96239.44
2023-03-16T22:14:40.913Z,96241.06
2023-03-16T22:19:43.972Z,96251.38
2023-03-16T22:24:48.158Z,96245.38
2023-03-16T22:29:51.162Z,96230.25
2023-03-16T22:34:56.106Z,96234.88
2023-03-16T22:40:02.075Z,96227.03
2023-03-16T22:45:07.551Z,96229.16
2023-03-16T22:50:14.766Z,96214.59
2023-03-16T22:55:20.866Z,96213.50
2023-03-16T23:00:28.658Z,96219.44
2023-03-16T23:05:32.002Z,96217.03
2023-03-16T23:10:37.134Z,96216.47
2023-03-16T23:15:40.019Z,96223.81
2023-03-16T23:20:43.491Z,96225.41
2023-03-16T23:25:48.665Z,96225.41
2023-03-16T23:30:51.619Z,96224.06
2023-03-16T23:35:54.439Z,96214.59
2023-03-16T23:40:58.632Z,96220.81
2023-03-16T23:46:01.502Z,96213.22
2023-03-16T23:51:04.580Z,96223.53
2023-03-16T23:56:11.612Z,96224.31
